sensor_id;sensor_type;location;lat;lon;timestamp;P1;durP1;ratioP1;P2;durP2;ratioP2
21394;SDS011;10858;42.714;23.180;2022-11-13T00:00:33;6.38;;;1.83;;
21394;SDS011;10858;42.714;23.180;2022-11-13T00:03:00;2.35;;;2.15;;
21394;SDS011;10858;42.714;23.180;2022-11-13T00:05:26;4.43;;;3.72;;
21394;SDS011;10858;42.714;23.180;2022-11-13T00:07:52;1.45;;;1.35;;
21394;SDS011;10858;42.714;23.180;2022-11-13T00:10:19;3.20;;;1.85;;
21394;SDS011;10858;42.714;23.180;2022-11-13T00:12:45;1.20;;;1.20;;
21394;SDS011;10858;42.714;23.180;2022-11-13T00:15:11;0.65;;;0.65;;
21394;SDS011;10858;42.714;23.180;2022-11-13T00:17:37;2.00;;;1.80;;
21394;SDS011;10858;42.714;23.180;2022-11-13T00:20:04;0.80;;;0.80;;
21394;SDS011;10858;42.714;23.180;2022-11-13T00:22:30;2.15;;;2.05;;
21394;SDS011;10858;42.714;23.180;2022-11-13T00:24:56;2.67;;;1.67;;
21394;SDS011;10858;42.714;23.180;2022-11-13T00:27:23;2.92;;;1.38;;
21394;SDS011;10858;42.714;23.180;2022-11-13T00:29:49;2.85;;;2.63;;
21394;SDS011;10858;42.714;23.180;2022-11-13T00:32:15;1.90;;;1.73;;
21394;SDS011;10858;42.714;23.180;2022-11-13T00:34:44;1.23;;;1.20;;
21394;SDS011;10858;42.714;23.180;2022-11-13T00:37:10;1.95;;;1.83;;
21394;SDS011;10858;42.714;23.180;2022-11-13T00:39:37;1.35;;;0.93;;
21394;SDS011;10858;42.714;23.180;2022-11-13T00:42:03;1.60;;;1.50;;
21394;SDS011;10858;42.714;23.180;2022-11-13T00:44:29;25.15;;;2.63;;
21394;SDS011;10858;42.714;23.180;2022-11-13T00:46:55;1.35;;;1.30;;
21394;SDS011;10858;42.714;23.180;2022-11-13T00:49:21;1.60;;;0.80;;
21394;SDS011;10858;42.714;23.180;2022-11-13T00:51:48;2.72;;;1.67;;
21394;SDS011;10858;42.714;23.180;2022-11-13T00:54:14;7.18;;;2.17;;
21394;SDS011;10858;42.714;23.180;2022-11-13T00:56:40;5.80;;;2.15;;
21394;SDS011;10858;42.714;23.180;2022-11-13T00:59:06;2.72;;;2.47;;
21394;SDS011;10858;42.714;23.180;2022-11-13T01:01:32;3.03;;;0.98;;
21394;SDS011;10858;42.714;23.180;2022-11-13T01:03:58;1.33;;;1.23;;
21394;SDS011;10858;42.714;23.180;2022-11-13T01:06:25;2.63;;;2.35;;
21394;SDS011;10858;42.714;23.180;2022-11-13T01:08:56;1.52;;;1.42;;
21394;SDS011;10858;42.714;23.180;2022-11-13T01:11:24;2.90;;;2.17;;
21394;SDS011;10858;42.714;23.180;2022-11-13T01:13:52;0.73;;;0.73;;
21394;SDS011;10858;42.714;23.180;2022-11-13T01:16:20;0.95;;;0.95;;
21394;SDS011;10858;42.714;23.180;2022-11-13T01:18:49;1.55;;;1.45;;
21394;SDS011;10858;42.714;23.180;2022-11-13T01:21:18;1.52;;;1.42;;
21394;SDS011;10858;42.714;23.180;2022-11-13T01:23:47;3.53;;;1.85;;
21394;SDS011;10858;42.714;23.180;2022-11-13T01:28:47;1.83;;;1.42;;
21394;SDS011;10858;42.714;23.180;2022-11-13T01:31:14;1.02;;;1.02;;
21394;SDS011;10858;42.714;23.180;2022-11-13T01:33:43;1.90;;;1.77;;
21394;SDS011;10858;42.714;23.180;2022-11-13T01:36:11;1.55;;;1.45;;
21394;SDS011;10858;42.714;23.180;2022-11-13T01:38:42;2.00;;;1.88;;
21394;SDS011;10858;42.714;23.180;2022-11-13T01:41:12;5.05;;;2.75;;
21394;SDS011;10858;42.714;23.180;2022-11-13T01:43:45;1.65;;;1.55;;
21394;SDS011;10858;42.714;23.180;2022-11-13T01:46:15;2.00;;;1.75;;
21394;SDS011;10858;42.714;23.180;2022-11-13T01:48:48;2.17;;;1.95;;
21394;SDS011;10858;42.714;23.180;2022-11-13T01:51:23;2.15;;;1.85;;
21394;SDS011;10858;42.714;23.180;2022-11-13T01:54:36;2.00;;;1.88;;
21394;SDS011;10858;42.714;23.180;2022-11-13T01:57:06;1.60;;;1.23;;
21394;SDS011;10858;42.714;23.180;2022-11-13T01:59:40;7.85;;;2.13;;
21394;SDS011;10858;42.714;23.180;2022-11-13T02:02:09;1.70;;;1.60;;
21394;SDS011;10858;42.714;23.180;2022-11-13T02:04:35;1.88;;;1.70;;
21394;SDS011;10858;42.714;23.180;2022-11-13T02:07:20;2.92;;;1.88;;
21394;SDS011;10858;42.714;23.180;2022-11-13T02:09:52;0.70;;;0.70;;
21394;SDS011;10858;42.714;23.180;2022-11-13T02:12:21;1.63;;;1.52;;
21394;SDS011;10858;42.714;23.180;2022-11-13T02:14:54;2.60;;;1.77;;
21394;SDS011;10858;42.714;23.180;2022-11-13T02:17:28;0.98;;;0.98;;
21394;SDS011;10858;42.714;23.180;2022-11-13T02:20:06;1.35;;;1.20;;
21394;SDS011;10858;42.714;23.180;2022-11-13T02:25:27;2.67;;;2.00;;
21394;SDS011;10858;42.714;23.180;2022-11-13T02:27:55;1.92;;;1.35;;
21394;SDS011;10858;42.714;23.180;2022-11-13T02:30:23;2.53;;;2.08;;
21394;SDS011;10858;42.714;23.180;2022-11-13T02:32:56;1.30;;;1.20;;
21394;SDS011;10858;42.714;23.180;2022-11-13T02:35:27;2.40;;;2.20;;
21394;SDS011;10858;42.714;23.180;2022-11-13T02:37:57;3.50;;;2.50;;
21394;SDS011;10858;42.714;23.180;2022-11-13T02:40:25;5.10;;;1.35;;
21394;SDS011;10858;42.714;23.180;2022-11-13T02:42:51;0.68;;;0.68;;
21394;SDS011;10858;42.714;23.180;2022-11-13T02:45:18;2.17;;;1.58;;
21394;SDS011;10858;42.714;23.180;2022-11-13T02:47:44;11.38;;;2.38;;
21394;SDS011;10858;42.714;23.180;2022-11-13T02:50:10;0.75;;;0.75;;
21394;SDS011;10858;42.714;23.180;2022-11-13T02:52:37;1.77;;;1.67;;
21394;SDS011;10858;42.714;23.180;2022-11-13T02:55:04;2.25;;;1.60;;
21394;SDS011;10858;42.714;23.180;2022-11-13T02:57:30;2.15;;;1.58;;
21394;SDS011;10858;42.714;23.180;2022-11-13T02:59:57;2.22;;;2.03;;
21394;SDS011;10858;42.714;23.180;2022-11-13T03:02:23;1.13;;;1.08;;
21394;SDS011;10858;42.714;23.180;2022-11-13T03:04:49;2.13;;;1.95;;
21394;SDS011;10858;42.714;23.180;2022-11-13T03:07:15;1.95;;;1.85;;
21394;SDS011;10858;42.714;23.180;2022-11-13T03:09:41;2.58;;;2.38;;
21394;SDS011;10858;42.714;23.180;2022-11-13T03:12:08;1.05;;;1.05;;
21394;SDS011;10858;42.714;23.180;2022-11-13T03:14:34;1.83;;;1.60;;
21394;SDS011;10858;42.714;23.180;2022-11-13T03:17:00;1.30;;;1.23;;
21394;SDS011;10858;42.714;23.180;2022-11-13T03:19:27;1.50;;;1.40;;
21394;SDS011;10858;42.714;23.180;2022-11-13T03:21:53;1.75;;;1.65;;
21394;SDS011;10858;42.714;23.180;2022-11-13T03:24:20;2.97;;;1.00;;
21394;SDS011;10858;42.714;23.180;2022-11-13T03:26:46;1.40;;;1.33;;
21394;SDS011;10858;42.714;23.180;2022-11-13T03:29:12;2.30;;;2.13;;
21394;SDS011;10858;42.714;23.180;2022-11-13T03:31:39;1.35;;;1.33;;
21394;SDS011;10858;42.714;23.180;2022-11-13T03:34:05;2.22;;;1.67;;
21394;SDS011;10858;42.714;23.180;2022-11-13T03:36:32;5.60;;;2.22;;
21394;SDS011;10858;42.714;23.180;2022-11-13T03:38:58;3.40;;;1.83;;
21394;SDS011;10858;42.714;23.180;2022-11-13T03:41:24;2.83;;;2.63;;
21394;SDS011;10858;42.714;23.180;2022-11-13T03:43:50;1.05;;;1.05;;
21394;SDS011;10858;42.714;23.180;2022-11-13T03:46:17;2.80;;;1.88;;
21394;SDS011;10858;42.714;23.180;2022-11-13T03:48:43;4.10;;;1.88;;
21394;SDS011;10858;42.714;23.180;2022-11-13T03:51:09;1.30;;;1.20;;
21394;SDS011;10858;42.714;23.180;2022-11-13T03:53:35;3.90;;;3.22;;
21394;SDS011;10858;42.714;23.180;2022-11-13T03:56:01;2.33;;;2.17;;
21394;SDS011;10858;42.714;23.180;2022-11-13T03:58:28;0.98;;;0.98;;
21394;SDS011;10858;42.714;23.180;2022-11-13T04:00:54;2.88;;;2.63;;
21394;SDS011;10858;42.714;23.180;2022-11-13T04:03:21;2.97;;;1.63;;
21394;SDS011;10858;42.714;23.180;2022-11-13T04:05:48;2.60;;;2.40;;
21394;SDS011;10858;42.714;23.180;2022-11-13T04:08:15;2.40;;;1.90;;
21394;SDS011;10858;42.714;23.180;2022-11-13T04:10:42;7.22;;;2.63;;
21394;SDS011;10858;42.714;23.180;2022-11-13T04:13:09;2.75;;;1.80;;
21394;SDS011;10858;42.714;23.180;2022-11-13T04:15:36;2.10;;;1.92;;
21394;SDS011;10858;42.714;23.180;2022-11-13T04:18:02;0.98;;;0.98;;
21394;SDS011;10858;42.714;23.180;2022-11-13T04:20:29;2.53;;;1.95;;
21394;SDS011;10858;42.714;23.180;2022-11-13T04:22:55;2.15;;;1.90;;
21394;SDS011;10858;42.714;23.180;2022-11-13T04:25:22;1.27;;;1.17;;
21394;SDS011;10858;42.714;23.180;2022-11-13T04:27:49;4.47;;;1.77;;
21394;SDS011;10858;42.714;23.180;2022-11-13T04:30:16;1.70;;;1.60;;
21394;SDS011;10858;42.714;23.180;2022-11-13T04:32:42;4.30;;;2.47;;
21394;SDS011;10858;42.714;23.180;2022-11-13T04:35:09;1.73;;;1.63;;
21394;SDS011;10858;42.714;23.180;2022-11-13T04:37:35;2.00;;;1.80;;
21394;SDS011;10858;42.714;23.180;2022-11-13T04:40:02;2.60;;;2.40;;
21394;SDS011;10858;42.714;23.180;2022-11-13T04:42:29;2.80;;;2.50;;
21394;SDS011;10858;42.714;23.180;2022-11-13T04:45:13;1.58;;;1.48;;
21394;SDS011;10858;42.714;23.180;2022-11-13T04:47:40;1.88;;;1.77;;
21394;SDS011;10858;42.714;23.180;2022-11-13T04:50:07;1.08;;;1.08;;
21394;SDS011;10858;42.714;23.180;2022-11-13T04:52:34;1.35;;;1.25;;
21394;SDS011;10858;42.714;23.180;2022-11-13T04:55:00;1.85;;;1.75;;
21394;SDS011;10858;42.714;23.180;2022-11-13T04:57:27;2.88;;;2.25;;
21394;SDS011;10858;42.714;23.180;2022-11-13T04:59:53;1.58;;;1.48;;
21394;SDS011;10858;42.714;23.180;2022-11-13T05:02:19;2.50;;;2.28;;
21394;SDS011;10858;42.714;23.180;2022-11-13T05:04:46;1.00;;;1.00;;
21394;SDS011;10858;42.714;23.180;2022-11-13T05:07:12;1.80;;;1.67;;
21394;SDS011;10858;42.714;23.180;2022-11-13T05:09:40;6.30;;;3.60;;
21394;SDS011;10858;42.714;23.180;2022-11-13T05:12:06;2.38;;;1.65;;
21394;SDS011;10858;42.714;23.180;2022-11-13T05:14:36;3.20;;;2.90;;
21394;SDS011;10858;42.714;23.180;2022-11-13T05:17:03;2.90;;;2.10;;
21394;SDS011;10858;42.714;23.180;2022-11-13T05:19:33;1.98;;;1.88;;
21394;SDS011;10858;42.714;23.180;2022-11-13T05:21:59;2.80;;;2.35;;
21394;SDS011;10858;42.714;23.180;2022-11-13T05:24:26;1.88;;;1.77;;
21394;SDS011;10858;42.714;23.180;2022-11-13T05:26:52;1.85;;;1.75;;
21394;SDS011;10858;42.714;23.180;2022-11-13T05:29:19;4.55;;;3.25;;
21394;SDS011;10858;42.714;23.180;2022-11-13T05:31:45;3.90;;;3.53;;
21394;SDS011;10858;42.714;23.180;2022-11-13T05:34:12;3.95;;;2.90;;
21394;SDS011;10858;42.714;23.180;2022-11-13T05:36:38;2.95;;;2.42;;
21394;SDS011;10858;42.714;23.180;2022-11-13T05:39:05;2.63;;;2.47;;
21394;SDS011;10858;42.714;23.180;2022-11-13T05:41:31;2.95;;;1.95;;
21394;SDS011;10858;42.714;23.180;2022-11-13T05:43:57;7.47;;;3.53;;
21394;SDS011;10858;42.714;23.180;2022-11-13T05:46:25;1.95;;;1.48;;
21394;SDS011;10858;42.714;23.180;2022-11-13T05:48:56;5.03;;;3.20;;
21394;SDS011;10858;42.714;23.180;2022-11-13T05:51:25;3.63;;;3.30;;
21394;SDS011;10858;42.714;23.180;2022-11-13T05:53:55;2.20;;;2.08;;
21394;SDS011;10858;42.714;23.180;2022-11-13T05:56:23;2.47;;;2.22;;
21394;SDS011;10858;42.714;23.180;2022-11-13T05:58:54;1.67;;;1.58;;
21394;SDS011;10858;42.714;23.180;2022-11-13T06:01:27;3.42;;;3.10;;
21394;SDS011;10858;42.714;23.180;2022-11-13T06:04:01;4.18;;;2.85;;
21394;SDS011;10858;42.714;23.180;2022-11-13T06:06:29;6.13;;;4.78;;
21394;SDS011;10858;42.714;23.180;2022-11-13T06:08:56;2.78;;;2.58;;
21394;SDS011;10858;42.714;23.180;2022-11-13T06:11:25;5.80;;;3.83;;
21394;SDS011;10858;42.714;23.180;2022-11-13T06:13:52;8.23;;;3.22;;
21394;SDS011;10858;42.714;23.180;2022-11-13T06:16:24;6.03;;;4.10;;
21394;SDS011;10858;42.714;23.180;2022-11-13T06:18:58;3.22;;;2.53;;
21394;SDS011;10858;42.714;23.180;2022-11-13T06:21:27;3.45;;;1.70;;
21394;SDS011;10858;42.714;23.180;2022-11-13T06:23:55;3.22;;;2.92;;
21394;SDS011;10858;42.714;23.180;2022-11-13T06:26:23;4.82;;;3.53;;
21394;SDS011;10858;42.714;23.180;2022-11-13T06:28:51;5.22;;;3.95;;
21394;SDS011;10858;42.714;23.180;2022-11-13T06:31:21;2.97;;;1.90;;
21394;SDS011;10858;42.714;23.180;2022-11-13T06:33:49;2.63;;;2.42;;
21394;SDS011;10858;42.714;23.180;2022-11-13T06:36:20;2.58;;;2.38;;
21394;SDS011;10858;42.714;23.180;2022-11-13T06:38:48;5.97;;;3.53;;
21394;SDS011;10858;42.714;23.180;2022-11-13T06:41:14;2.33;;;2.13;;
21394;SDS011;10858;42.714;23.180;2022-11-13T06:43:42;3.97;;;2.83;;
21394;SDS011;10858;42.714;23.180;2022-11-13T06:46:13;4.03;;;1.45;;
21394;SDS011;10858;42.714;23.180;2022-11-13T06:48:41;9.73;;;3.63;;
21394;SDS011;10858;42.714;23.180;2022-11-13T06:51:08;3.78;;;3.13;;
21394;SDS011;10858;42.714;23.180;2022-11-13T06:53:42;9.45;;;3.83;;
21394;SDS011;10858;42.714;23.180;2022-11-13T06:56:08;2.22;;;1.42;;
21394;SDS011;10858;42.714;23.180;2022-11-13T06:58:35;5.70;;;3.17;;
21394;SDS011;10858;42.714;23.180;2022-11-13T07:01:09;3.38;;;3.08;;
21394;SDS011;10858;42.714;23.180;2022-11-13T07:03:37;3.22;;;2.95;;
21394;SDS011;10858;42.714;23.180;2022-11-13T07:06:04;4.13;;;3.22;;
21394;SDS011;10858;42.714;23.180;2022-11-13T07:08:32;3.67;;;2.13;;
21394;SDS011;10858;42.714;23.180;2022-11-13T07:10:59;3.55;;;2.85;;
21394;SDS011;10858;42.714;23.180;2022-11-13T07:13:26;2.97;;;2.63;;
21394;SDS011;10858;42.714;23.180;2022-11-13T07:15:53;2.42;;;1.58;;
21394;SDS011;10858;42.714;23.180;2022-11-13T07:18:25;4.47;;;3.90;;
21394;SDS011;10858;42.714;23.180;2022-11-13T07:20:51;5.97;;;3.10;;
21394;SDS011;10858;42.714;23.180;2022-11-13T07:23:17;3.97;;;2.33;;
21394;SDS011;10858;42.714;23.180;2022-11-13T07:25:43;3.35;;;2.30;;
21394;SDS011;10858;42.714;23.180;2022-11-13T07:28:09;4.07;;;1.50;;
21394;SDS011;10858;42.714;23.180;2022-11-13T07:30:35;4.53;;;1.98;;
21394;SDS011;10858;42.714;23.180;2022-11-13T07:33:02;4.20;;;2.58;;
21394;SDS011;10858;42.714;23.180;2022-11-13T07:35:30;2.97;;;2.63;;
21394;SDS011;10858;42.714;23.180;2022-11-13T07:37:57;3.03;;;2.30;;
21394;SDS011;10858;42.714;23.180;2022-11-13T07:40:23;2.13;;;1.85;;
21394;SDS011;10858;42.714;23.180;2022-11-13T07:42:56;3.30;;;3.03;;
21394;SDS011;10858;42.714;23.180;2022-11-13T07:45:24;1.08;;;1.05;;
21394;SDS011;10858;42.714;23.180;2022-11-13T07:47:56;4.03;;;3.63;;
21394;SDS011;10858;42.714;23.180;2022-11-13T07:50:23;2.85;;;2.03;;
21394;SDS011;10858;42.714;23.180;2022-11-13T07:52:53;2.40;;;1.83;;
21394;SDS011;10858;42.714;23.180;2022-11-13T07:55:23;2.70;;;2.47;;
21394;SDS011;10858;42.714;23.180;2022-11-13T07:57:50;28.75;;;3.83;;
21394;SDS011;10858;42.714;23.180;2022-11-13T08:00:19;2.50;;;1.92;;
21394;SDS011;10858;42.714;23.180;2022-11-13T08:02:45;4.78;;;3.10;;
21394;SDS011;10858;42.714;23.180;2022-11-13T08:05:12;2.38;;;2.22;;
21394;SDS011;10858;42.714;23.180;2022-11-13T08:07:38;1.95;;;1.85;;
21394;SDS011;10858;42.714;23.180;2022-11-13T08:10:05;7.65;;;4.70;;
21394;SDS011;10858;42.714;23.180;2022-11-13T08:12:31;4.00;;;3.60;;
21394;SDS011;10858;42.714;23.180;2022-11-13T08:14:58;3.58;;;3.28;;
21394;SDS011;10858;42.714;23.180;2022-11-13T08:17:24;7.57;;;4.05;;
21394;SDS011;10858;42.714;23.180;2022-11-13T08:19:50;3.05;;;2.58;;
21394;SDS011;10858;42.714;23.180;2022-11-13T08:22:16;1.60;;;1.50;;
21394;SDS011;10858;42.714;23.180;2022-11-13T08:24:42;4.65;;;4.25;;
21394;SDS011;10858;42.714;23.180;2022-11-13T08:27:08;3.15;;;2.63;;
21394;SDS011;10858;42.714;23.180;2022-11-13T08:29:35;3.80;;;3.25;;
21394;SDS011;10858;42.714;23.180;2022-11-13T08:32:02;4.53;;;2.80;;
21394;SDS011;10858;42.714;23.180;2022-11-13T08:34:28;3.88;;;2.42;;
21394;SDS011;10858;42.714;23.180;2022-11-13T08:36:54;3.05;;;2.28;;
21394;SDS011;10858;42.714;23.180;2022-11-13T08:39:20;5.85;;;2.03;;
21394;SDS011;10858;42.714;23.180;2022-11-13T08:41:47;2.50;;;2.22;;
21394;SDS011;10858;42.714;23.180;2022-11-13T08:44:14;2.33;;;2.03;;
21394;SDS011;10858;42.714;23.180;2022-11-13T08:46:40;7.93;;;4.82;;
21394;SDS011;10858;42.714;23.180;2022-11-13T08:49:06;6.65;;;3.75;;
21394;SDS011;10858;42.714;23.180;2022-11-13T08:51:32;1.90;;;1.80;;
21394;SDS011;10858;42.714;23.180;2022-11-13T08:53:59;2.05;;;1.90;;
21394;SDS011;10858;42.714;23.180;2022-11-13T08:56:25;2.53;;;2.33;;
21394;SDS011;10858;42.714;23.180;2022-11-13T08:58:51;4.80;;;3.55;;
21394;SDS011;10858;42.714;23.180;2022-11-13T09:01:17;3.78;;;3.22;;
21394;SDS011;10858;42.714;23.180;2022-11-13T09:03:47;4.32;;;2.65;;
21394;SDS011;10858;42.714;23.180;2022-11-13T09:06:13;11.52;;;2.83;;
21394;SDS011;10858;42.714;23.180;2022-11-13T09:08:40;3.97;;;2.92;;
21394;SDS011;10858;42.714;23.180;2022-11-13T09:11:06;2.03;;;1.88;;
21394;SDS011;10858;42.714;23.180;2022-11-13T09:13:32;3.90;;;3.05;;
21394;SDS011;10858;42.714;23.180;2022-11-13T09:15:59;7.95;;;4.70;;
21394;SDS011;10858;42.714;23.180;2022-11-13T09:18:27;1.98;;;1.83;;
21394;SDS011;10858;42.714;23.180;2022-11-13T09:20:54;3.75;;;2.97;;
21394;SDS011;10858;42.714;23.180;2022-11-13T09:23:24;5.45;;;3.88;;
21394;SDS011;10858;42.714;23.180;2022-11-13T09:25:51;4.28;;;2.80;;
21394;SDS011;10858;42.714;23.180;2022-11-13T09:28:17;4.40;;;2.92;;
21394;SDS011;10858;42.714;23.180;2022-11-13T09:30:43;3.25;;;2.85;;
21394;SDS011;10858;42.714;23.180;2022-11-13T09:33:09;2.53;;;2.13;;
21394;SDS011;10858;42.714;23.180;2022-11-13T09:35:39;3.13;;;2.88;;
21394;SDS011;10858;42.714;23.180;2022-11-13T09:38:07;5.13;;;3.22;;
21394;SDS011;10858;42.714;23.180;2022-11-13T09:51:40;3.78;;;3.08;;
21394;SDS011;10858;42.714;23.180;2022-11-13T09:54:15;2.40;;;2.20;;
21394;SDS011;10858;42.714;23.180;2022-11-13T09:56:42;4.03;;;2.97;;
21394;SDS011;10858;42.714;23.180;2022-11-13T10:12:49;3.75;;;2.97;;
21394;SDS011;10858;42.714;23.180;2022-11-13T10:15:19;3.85;;;3.33;;
21394;SDS011;10858;42.714;23.180;2022-11-13T10:17:54;8.75;;;2.80;;
21394;SDS011;10858;42.714;23.180;2022-11-13T10:20:56;3.63;;;2.70;;
21394;SDS011;10858;42.714;23.180;2022-11-13T10:23:30;3.65;;;2.33;;
21394;SDS011;10858;42.714;23.180;2022-11-13T10:26:06;1.67;;;1.58;;
21394;SDS011;10858;42.714;23.180;2022-11-13T10:28:39;4.47;;;3.03;;
21394;SDS011;10858;42.714;23.180;2022-11-13T10:31:08;2.60;;;2.35;;
21394;SDS011;10858;42.714;23.180;2022-11-13T10:33:36;4.05;;;3.30;;
21394;SDS011;10858;42.714;23.180;2022-11-13T10:39:27;3.85;;;3.08;;
21394;SDS011;10858;42.714;23.180;2022-11-13T10:41:47;3.97;;;2.65;;
21394;SDS011;10858;42.714;23.180;2022-11-13T10:44:25;3.65;;;2.55;;
21394;SDS011;10858;42.714;23.180;2022-11-13T10:47:02;5.55;;;3.20;;
21394;SDS011;10858;42.714;23.180;2022-11-13T10:49:30;6.07;;;2.50;;
21394;SDS011;10858;42.714;23.180;2022-11-13T10:51:57;3.90;;;2.38;;
21394;SDS011;10858;42.714;23.180;2022-11-13T10:54:30;8.07;;;4.55;;
21394;SDS011;10858;42.714;23.180;2022-11-13T10:57:01;3.35;;;3.05;;
21394;SDS011;10858;42.714;23.180;2022-11-13T10:59:39;5.97;;;3.67;;
21394;SDS011;10858;42.714;23.180;2022-11-13T11:02:08;2.75;;;2.28;;
21394;SDS011;10858;42.714;23.180;2022-11-13T11:04:41;3.67;;;3.33;;
21394;SDS011;10858;42.714;23.180;2022-11-13T11:07:15;5.70;;;2.63;;
21394;SDS011;10858;42.714;23.180;2022-11-13T11:09:43;3.67;;;2.67;;
21394;SDS011;10858;42.714;23.180;2022-11-13T11:12:12;5.18;;;4.03;;
21394;SDS011;10858;42.714;23.180;2022-11-13T11:14:44;4.63;;;3.53;;
21394;SDS011;10858;42.714;23.180;2022-11-13T11:17:17;3.13;;;2.53;;
21394;SDS011;10858;42.714;23.180;2022-11-13T11:20:02;5.68;;;3.20;;
21394;SDS011;10858;42.714;23.180;2022-11-13T11:22:56;2.63;;;2.42;;
21394;SDS011;10858;42.714;23.180;2022-11-13T11:25:52;2.97;;;2.65;;
21394;SDS011;10858;42.714;23.180;2022-11-13T11:35:07;4.95;;;3.72;;
21394;SDS011;10858;42.714;23.180;2022-11-13T11:37:46;5.60;;;3.63;;
21394;SDS011;10858;42.714;23.180;2022-11-13T11:40:41;3.08;;;2.30;;
21394;SDS011;10858;42.714;23.180;2022-11-13T11:43:14;2.78;;;2.58;;
21394;SDS011;10858;42.714;23.180;2022-11-13T11:45:44;3.08;;;2.75;;
21394;SDS011;10858;42.714;23.180;2022-11-13T11:48:12;7.05;;;3.17;;
21394;SDS011;10858;42.714;23.180;2022-11-13T11:53:27;3.97;;;3.13;;
21394;SDS011;10858;42.714;23.180;2022-11-13T12:08:59;3.00;;;1.63;;
21394;SDS011;10858;42.714;23.180;2022-11-13T12:11:38;3.20;;;2.90;;
21394;SDS011;10858;42.714;23.180;2022-11-13T12:23:09;4.15;;;3.13;;
21394;SDS011;10858;42.714;23.180;2022-11-13T12:29:20;1.52;;;1.45;;
21394;SDS011;10858;42.714;23.180;2022-11-13T12:36:52;4.18;;;2.45;;
21394;SDS011;10858;42.714;23.180;2022-11-13T12:39:38;4.05;;;2.20;;
21394;SDS011;10858;42.714;23.180;2022-11-13T12:51:12;3.22;;;2.33;;
21394;SDS011;10858;42.714;23.180;2022-11-13T12:53:51;6.10;;;3.40;;
21394;SDS011;10858;42.714;23.180;2022-11-13T12:58:57;4.70;;;3.03;;
21394;SDS011;10858;42.714;23.180;2022-11-13T13:01:34;7.60;;;3.35;;
21394;SDS011;10858;42.714;23.180;2022-11-13T13:07:01;2.70;;;2.25;;
21394;SDS011;10858;42.714;23.180;2022-11-13T13:09:43;1.83;;;1.73;;
21394;SDS011;10858;42.714;23.180;2022-11-13T13:15:23;3.90;;;3.17;;
21394;SDS011;10858;42.714;23.180;2022-11-13T13:23:29;2.05;;;1.90;;
21394;SDS011;10858;42.714;23.180;2022-11-13T13:26:02;3.47;;;2.92;;
21394;SDS011;10858;42.714;23.180;2022-11-13T13:28:45;4.90;;;3.78;;
21394;SDS011;10858;42.714;23.180;2022-11-13T13:38:57;1.73;;;1.63;;
21394;SDS011;10858;42.714;23.180;2022-11-13T13:41:43;2.22;;;2.03;;
21394;SDS011;10858;42.714;23.180;2022-11-13T13:46:51;8.65;;;2.92;;
21394;SDS011;10858;42.714;23.180;2022-11-13T13:49:21;30.55;;;4.75;;
21394;SDS011;10858;42.714;23.180;2022-11-13T13:51:51;2.72;;;2.28;;
21394;SDS011;10858;42.714;23.180;2022-11-13T13:54:27;6.97;;;2.95;;
21394;SDS011;10858;42.714;23.180;2022-11-13T13:56:56;3.88;;;2.50;;
21394;SDS011;10858;42.714;23.180;2022-11-13T14:01:56;3.33;;;2.63;;
21394;SDS011;10858;42.714;23.180;2022-11-13T14:04:27;10.63;;;2.88;;
21394;SDS011;10858;42.714;23.180;2022-11-13T14:06:58;3.40;;;2.58;;
21394;SDS011;10858;42.714;23.180;2022-11-13T14:09:26;2.38;;;2.10;;
21394;SDS011;10858;42.714;23.180;2022-11-13T14:14:24;5.10;;;3.28;;
21394;SDS011;10858;42.714;23.180;2022-11-13T14:16:52;7.78;;;2.97;;
21394;SDS011;10858;42.714;23.180;2022-11-13T14:19:19;5.80;;;4.00;;
21394;SDS011;10858;42.714;23.180;2022-11-13T14:21:51;3.63;;;3.33;;
21394;SDS011;10858;42.714;23.180;2022-11-13T14:26:52;8.90;;;3.97;;
21394;SDS011;10858;42.714;23.180;2022-11-13T14:32:05;1.83;;;1.73;;
21394;SDS011;10858;42.714;23.180;2022-11-13T14:34:47;5.72;;;3.35;;
21394;SDS011;10858;42.714;23.180;2022-11-13T14:37:23;5.22;;;3.15;;
21394;SDS011;10858;42.714;23.180;2022-11-13T14:40:04;2.08;;;1.83;;
21394;SDS011;10858;42.714;23.180;2022-11-13T14:43:04;4.60;;;3.72;;
21394;SDS011;10858;42.714;23.180;2022-11-13T14:45:32;6.20;;;3.42;;
21394;SDS011;10858;42.714;23.180;2022-11-13T14:53:06;5.70;;;2.92;;
21394;SDS011;10858;42.714;23.180;2022-11-13T14:55:37;6.65;;;3.83;;
21394;SDS011;10858;42.714;23.180;2022-11-13T14:58:25;5.75;;;4.03;;
21394;SDS011;10858;42.714;23.180;2022-11-13T15:00:57;4.95;;;2.42;;
21394;SDS011;10858;42.714;23.180;2022-11-13T15:03:40;2.83;;;2.63;;
21394;SDS011;10858;42.714;23.180;2022-11-13T15:08:41;7.38;;;4.13;;
21394;SDS011;10858;42.714;23.180;2022-11-13T15:11:12;4.45;;;4.05;;
21394;SDS011;10858;42.714;23.180;2022-11-13T15:13:39;2.58;;;2.40;;
21394;SDS011;10858;42.714;23.180;2022-11-13T15:16:05;5.18;;;4.68;;
21394;SDS011;10858;42.714;23.180;2022-11-13T15:18:37;7.13;;;4.38;;
21394;SDS011;10858;42.714;23.180;2022-11-13T15:21:03;3.55;;;3.25;;
21394;SDS011;10858;42.714;23.180;2022-11-13T15:23:29;5.35;;;3.67;;
21394;SDS011;10858;42.714;23.180;2022-11-13T15:25:55;11.75;;;4.95;;
21394;SDS011;10858;42.714;23.180;2022-11-13T15:28:22;2.80;;;2.60;;
21394;SDS011;10858;42.714;23.180;2022-11-13T15:30:48;4.38;;;3.55;;
21394;SDS011;10858;42.714;23.180;2022-11-13T15:33:14;5.55;;;4.18;;
21394;SDS011;10858;42.714;23.180;2022-11-13T15:35:41;5.63;;;3.95;;
21394;SDS011;10858;42.714;23.180;2022-11-13T15:38:10;3.05;;;2.83;;
21394;SDS011;10858;42.714;23.180;2022-11-13T15:40:37;14.98;;;3.90;;
21394;SDS011;10858;42.714;23.180;2022-11-13T15:43:04;7.60;;;5.82;;
21394;SDS011;10858;42.714;23.180;2022-11-13T15:45:35;5.85;;;5.30;;
21394;SDS011;10858;42.714;23.180;2022-11-13T15:48:02;9.85;;;8.45;;
21394;SDS011;10858;42.714;23.180;2022-11-13T15:50:28;4.18;;;3.80;;
21394;SDS011;10858;42.714;23.180;2022-11-13T15:55:30;5.32;;;4.40;;
21394;SDS011;10858;42.714;23.180;2022-11-13T15:57:57;7.18;;;5.78;;
21394;SDS011;10858;42.714;23.180;2022-11-13T16:00:26;9.32;;;5.70;;
21394;SDS011;10858;42.714;23.180;2022-11-13T16:02:54;11.60;;;6.78;;
21394;SDS011;10858;42.714;23.180;2022-11-13T16:05:25;5.65;;;4.93;;
21394;SDS011;10858;42.714;23.180;2022-11-13T16:07:53;5.30;;;4.85;;
21394;SDS011;10858;42.714;23.180;2022-11-13T16:10:20;10.80;;;7.35;;
21394;SDS011;10858;42.714;23.180;2022-11-13T16:12:48;6.95;;;6.03;;
21394;SDS011;10858;42.714;23.180;2022-11-13T16:15:15;5.82;;;3.67;;
21394;SDS011;10858;42.714;23.180;2022-11-13T16:17:52;7.00;;;5.25;;
21394;SDS011;10858;42.714;23.180;2022-11-13T16:20:21;7.35;;;5.57;;
21394;SDS011;10858;42.714;23.180;2022-11-13T16:22:48;12.57;;;8.23;;
21394;SDS011;10858;42.714;23.180;2022-11-13T16:25:16;7.68;;;7.05;;
21394;SDS011;10858;42.714;23.180;2022-11-13T16:27:44;5.63;;;3.83;;
21394;SDS011;10858;42.714;23.180;2022-11-13T16:32:41;6.93;;;4.75;;
21394;SDS011;10858;42.714;23.180;2022-11-13T16:35:10;5.60;;;5.10;;
21394;SDS011;10858;42.714;23.180;2022-11-13T16:37:38;14.85;;;6.45;;
21394;SDS011;10858;42.714;23.180;2022-11-13T16:40:24;7.50;;;5.20;;
21394;SDS011;10858;42.714;23.180;2022-11-13T16:42:51;13.80;;;5.00;;
21394;SDS011;10858;42.714;23.180;2022-11-13T16:45:18;6.28;;;5.10;;
21394;SDS011;10858;42.714;23.180;2022-11-13T16:47:45;5.28;;;4.57;;
21394;SDS011;10858;42.714;23.180;2022-11-13T16:50:21;6.38;;;5.60;;
21394;SDS011;10858;42.714;23.180;2022-11-13T16:52:52;7.65;;;6.30;;
21394;SDS011;10858;42.714;23.180;2022-11-13T16:55:18;9.95;;;6.45;;